sensor_id;sensor_type;location;lat;lon;timestamp;temperature;humidity
70368;DHT22;57789;53.868;10.728;2022-12-18T00:01:41;-4.50;99.90
70368;DHT22;57789;53.868;10.728;2022-12-18T00:04:11;-4.50;99.90
70368;DHT22;57789;53.868;10.728;2022-12-18T00:06:40;-4.50;99.90
70368;DHT22;57789;53.868;10.728;2022-12-18T00:09:05;-4.60;99.90
70368;DHT22;57789;53.868;10.728;2022-12-18T00:11:31;-4.60;99.90
70368;DHT22;57789;53.868;10.728;2022-12-18T00:13:58;-4.70;99.90
70368;DHT22;57789;53.868;10.728;2022-12-18T00:16:25;-4.70;99.90
70368;DHT22;57789;53.868;10.728;2022-12-18T00:18:53;-4.70;99.90
70368;DHT22;57789;53.868;10.728;2022-12-18T00:21:20;-4.70;99.90
70368;DHT22;57789;53.868;10.728;2022-12-18T00:23:47;-4.70;99.90
70368;DHT22;57789;53.868;10.728;2022-12-18T00:26:15;-4.70;99.90
70368;DHT22;57789;53.868;10.728;2022-12-18T00:28:42;-4.70;99.90
70368;DHT22;57789;53.868;10.728;2022-12-18T00:31:17;-4.70;99.90
70368;DHT22;57789;53.868;10.728;2022-12-18T00:33:43;-4.70;99.90
70368;DHT22;57789;53.868;10.728;2022-12-18T00:36:17;-4.70;99.90
70368;DHT22;57789;53.868;10.728;2022-12-18T00:38:43;-4.70;99.90
70368;DHT22;57789;53.868;10.728;2022-12-18T00:41:11;-4.70;99.90
70368;DHT22;57789;53.868;10.728;2022-12-18T00:43:39;-4.80;99.90
70368;DHT22;57789;53.868;10.728;2022-12-18T00:46:05;-4.80;99.90
70368;DHT22;57789;53.868;10.728;2022-12-18T00:48:31;-4.80;99.90
70368;DHT22;57789;53.868;10.728;2022-12-18T00:50:57;-4.70;99.90
70368;DHT22;57789;53.868;10.728;2022-12-18T00:53:23;-4.80;99.90
70368;DHT22;57789;53.868;10.728;2022-12-18T00:55:48;-4.70;99.90
70368;DHT22;57789;53.868;10.728;2022-12-18T00:58:16;-4.60;99.90
70368;DHT22;57789;53.868;10.728;2022-12-18T01:00:42;-4.50;99.90
70368;DHT22;57789;53.868;10.728;2022-12-18T01:03:09;-4.60;99.90
70368;DHT22;57789;53.868;10.728;2022-12-18T01:05:39;-4.70;99.90
70368;DHT22;57789;53.868;10.728;2022-12-18T01:08:05;-4.70;99.90
70368;DHT22;57789;53.868;10.728;2022-12-18T01:10:31;-4.80;99.90
70368;DHT22;57789;53.868;10.728;2022-12-18T01:12:56;-4.90;99.90
70368;DHT22;57789;53.868;10.728;2022-12-18T01:15:22;-4.90;99.90
70368;DHT22;57789;53.868;10.728;2022-12-18T01:17:47;-4.90;99.90
70368;DHT22;57789;53.868;10.728;2022-12-18T01:20:13;-5.00;99.90
70368;DHT22;57789;53.868;10.728;2022-12-18T01:22:39;-5.00;99.90
70368;DHT22;57789;53.868;10.728;2022-12-18T01:25:05;-5.00;99.90
70368;DHT22;57789;53.868;10.728;2022-12-18T01:27:33;-5.10;99.90
70368;DHT22;57789;53.868;10.728;2022-12-18T01:29:59;-5.10;99.90
70368;DHT22;57789;53.868;10.728;2022-12-18T01:32:24;-5.20;99.90
70368;DHT22;57789;53.868;10.728;2022-12-18T01:34:50;-5.20;99.90
70368;DHT22;57789;53.868;10.728;2022-12-18T01:37:16;-5.30;99.90
70368;DHT22;57789;53.868;10.728;2022-12-18T01:39:41;-5.30;99.90
70368;DHT22;57789;53.868;10.728;2022-12-18T01:42:14;-5.30;99.90
70368;DHT22;57789;53.868;10.728;2022-12-18T01:48:13;-5.30;99.90
70368;DHT22;57789;53.868;10.728;2022-12-18T01:50:38;-5.30;99.90
70368;DHT22;57789;53.868;10.728;2022-12-18T01:53:11;-5.30;99.90
70368;DHT22;57789;53.868;10.728;2022-12-18T01:55:45;-5.30;99.90
70368;DHT22;57789;53.868;10.728;2022-12-18T01:58:12;-5.30;99.90
70368;DHT22;57789;53.868;10.728;2022-12-18T02:00:37;-5.40;99.90
70368;DHT22;57789;53.868;10.728;2022-12-18T02:03:03;-5.40;99.90
70368;DHT22;57789;53.868;10.728;2022-12-18T02:05:46;-5.40;99.90
70368;DHT22;57789;53.868;10.728;2022-12-18T02:08:21;-5.40;99.90
70368;DHT22;57789;53.868;10.728;2022-12-18T02:13:37;-5.30;99.90
70368;DHT22;57789;53.868;10.728;2022-12-18T02:16:24;-5.30;99.90
70368;DHT22;57789;53.868;10.728;2022-12-18T02:18:58;-5.20;99.90
70368;DHT22;57789;53.868;10.728;2022-12-18T02:26:50;-5.30;99.90
70368;DHT22;57789;53.868;10.728;2022-12-18T02:29:27;-5.30;99.90
70368;DHT22;57789;53.868;10.728;2022-12-18T02:32:01;-5.30;99.90
70368;DHT22;57789;53.868;10.728;2022-12-18T02:34:34;-5.30;99.90
70368;DHT22;57789;53.868;10.728;2022-12-18T02:37:05;-5.30;99.90
70368;DHT22;57789;53.868;10.728;2022-12-18T02:39:34;-5.40;99.90
70368;DHT22;57789;53.868;10.728;2022-12-18T02:42:01;-5.30;99.90
70368;DHT22;57789;53.868;10.728;2022-12-18T02:44:49;-5.40;99.90
70368;DHT22;57789;53.868;10.728;2022-12-18T02:47:19;-5.30;99.90
70368;DHT22;57789;53.868;10.728;2022-12-18T02:58:26;-5.40;99.90
70368;DHT22;57789;53.868;10.728;2022-12-18T03:03:58;-5.50;99.90
70368;DHT22;57789;53.868;10.728;2022-12-18T03:06:32;-5.50;99.90
70368;DHT22;57789;53.868;10.728;2022-12-18T03:09:10;-5.40;99.90
70368;DHT22;57789;53.868;10.728;2022-12-18T03:11:40;-5.50;99.90
70368;DHT22;57789;53.868;10.728;2022-12-18T03:14:27;-5.50;99.90
70368;DHT22;57789;53.868;10.728;2022-12-18T03:16:58;-5.50;99.90
70368;DHT22;57789;53.868;10.728;2022-12-18T03:19:28;-5.50;99.90
70368;DHT22;57789;53.868;10.728;2022-12-18T03:21:57;-5.60;99.90
70368;DHT22;57789;53.868;10.728;2022-12-18T03:24:26;-5.60;99.90
70368;DHT22;57789;53.868;10.728;2022-12-18T03:26:57;-5.70;99.90
70368;DHT22;57789;53.868;10.728;2022-12-18T03:29:32;-5.60;99.90
70368;DHT22;57789;53.868;10.728;2022-12-18T03:32:07;-5.60;99.90
70368;DHT22;57789;53.868;10.728;2022-12-18T03:34:35;-5.60;99.90
70368;DHT22;57789;53.868;10.728;2022-12-18T03:37:02;-5.60;99.90
70368;DHT22;57789;53.868;10.728;2022-12-18T03:39:28;-5.60;99.90
70368;DHT22;57789;53.868;10.728;2022-12-18T03:44:43;-5.80;99.90
70368;DHT22;57789;53.868;10.728;2022-12-18T03:52:29;-6.00;99.90
70368;DHT22;57789;53.868;10.728;2022-12-18T03:54:58;-6.00;99.90
70368;DHT22;57789;53.868;10.728;2022-12-18T03:57:27;-6.00;99.90
70368;DHT22;57789;53.868;10.728;2022-12-18T03:59:57;-5.90;99.90
70368;DHT22;57789;53.868;10.728;2022-12-18T04:02:25;-5.90;99.90
70368;DHT22;57789;53.868;10.728;2022-12-18T04:04:57;-5.90;99.90
70368;DHT22;57789;53.868;10.728;2022-12-18T04:07:23;-5.80;99.90
70368;DHT22;57789;53.868;10.728;2022-12-18T04:09:51;-5.80;99.90
70368;DHT22;57789;53.868;10.728;2022-12-18T04:12:18;-5.80;99.90
70368;DHT22;57789;53.868;10.728;2022-12-18T04:14:44;-5.80;99.90
70368;DHT22;57789;53.868;10.728;2022-12-18T04:17:10;-5.90;99.90
70368;DHT22;57789;53.868;10.728;2022-12-18T04:19:36;-5.90;99.90
70368;DHT22;57789;53.868;10.728;2022-12-18T04:22:01;-5.90;99.90
70368;DHT22;57789;53.868;10.728;2022-12-18T04:24:27;-5.90;99.90
70368;DHT22;57789;53.868;10.728;2022-12-18T04:26:53;-6.00;99.90
70368;DHT22;57789;53.868;10.728;2022-12-18T04:29:19;-5.90;99.90
70368;DHT22;57789;53.868;10.728;2022-12-18T04:31:44;-5.90;99.90
70368;DHT22;57789;53.868;10.728;2022-12-18T04:34:10;-5.90;99.90
70368;DHT22;57789;53.868;10.728;2022-12-18T04:36:35;-5.90;99.90
70368;DHT22;57789;53.868;10.728;2022-12-18T04:39:01;-5.90;99.90
70368;DHT22;57789;53.868;10.728;2022-12-18T04:41:27;-5.90;99.90
70368;DHT22;57789;53.868;10.728;2022-12-18T04:43:52;-5.80;99.90
70368;DHT22;57789;53.868;10.728;2022-12-18T04:46:18;-5.80;99.90
70368;DHT22;57789;53.868;10.728;2022-12-18T04:48:46;-5.80;99.90
70368;DHT22;57789;53.868;10.728;2022-12-18T04:51:12;-5.80;99.90
70368;DHT22;57789;53.868;10.728;2022-12-18T04:53:38;-5.80;99.90
70368;DHT22;57789;53.868;10.728;2022-12-18T04:56:07;-5.80;99.90
70368;DHT22;57789;53.868;10.728;2022-12-18T04:58:34;-5.80;99.90
70368;DHT22;57789;53.868;10.728;2022-12-18T05:01:00;-5.90;99.90
70368;DHT22;57789;53.868;10.728;2022-12-18T05:03:26;-5.80;99.90
70368;DHT22;57789;53.868;10.728;2022-12-18T05:05:51;-5.80;99.90
70368;DHT22;57789;53.868;10.728;2022-12-18T05:08:18;-5.80;99.90
70368;DHT22;57789;53.868;10.728;2022-12-18T05:10:43;-5.70;99.90
70368;DHT22;57789;53.868;10.728;2022-12-18T05:13:09;-5.80;99.90
70368;DHT22;57789;53.868;10.728;2022-12-18T05:15:35;-5.70;99.90
70368;DHT22;57789;53.868;10.728;2022-12-18T05:18:01;-5.70;99.90
70368;DHT22;57789;53.868;10.728;2022-12-18T05:20:27;-5.60;99.90
70368;DHT22;57789;53.868;10.728;2022-12-18T05:22:53;-5.60;99.90
70368;DHT22;57789;53.868;10.728;2022-12-18T05:25:21;-5.70;99.90
70368;DHT22;57789;53.868;10.728;2022-12-18T05:27:47;-5.70;99.90
70368;DHT22;57789;53.868;10.728;2022-12-18T05:30:13;-5.80;99.90
70368;DHT22;57789;53.868;10.728;2022-12-18T05:32:39;-5.80;99.90
70368;DHT22;57789;53.868;10.728;2022-12-18T05:35:07;-5.80;99.90
70368;DHT22;57789;53.868;10.728;2022-12-18T05:37:33;-5.70;99.90
70368;DHT22;57789;53.868;10.728;2022-12-18T05:39:59;-5.60;99.90
70368;DHT22;57789;53.868;10.728;2022-12-18T05:42:24;-5.70;99.90
70368;DHT22;57789;53.868;10.728;2022-12-18T05:44:50;-5.70;99.90
70368;DHT22;57789;53.868;10.728;2022-12-18T05:47:16;-5.80;99.90
70368;DHT22;57789;53.868;10.728;2022-12-18T05:49:41;-5.90;99.90
70368;DHT22;57789;53.868;10.728;2022-12-18T05:52:07;-5.90;99.90
70368;DHT22;57789;53.868;10.728;2022-12-18T05:54:32;-5.80;99.90
70368;DHT22;57789;53.868;10.728;2022-12-18T05:56:58;-5.70;99.90
70368;DHT22;57789;53.868;10.728;2022-12-18T05:59:24;-5.70;99.90
70368;DHT22;57789;53.868;10.728;2022-12-18T06:01:50;-5.80;99.90
70368;DHT22;57789;53.868;10.728;2022-12-18T06:04:15;-5.90;99.90
70368;DHT22;57789;53.868;10.728;2022-12-18T06:06:41;-5.90;99.90
70368;DHT22;57789;53.868;10.728;2022-12-18T06:09:07;-5.90;99.90
70368;DHT22;57789;53.868;10.728;2022-12-18T06:11:36;-5.90;99.90
70368;DHT22;57789;53.868;10.728;2022-12-18T06:14:03;-6.00;99.90
70368;DHT22;57789;53.868;10.728;2022-12-18T06:16:30;-6.10;99.90
70368;DHT22;57789;53.868;10.728;2022-12-18T06:18:57;-6.10;99.90
70368;DHT22;57789;53.868;10.728;2022-12-18T06:21:23;-6.00;99.90
70368;DHT22;57789;53.868;10.728;2022-12-18T06:23:48;-6.10;99.90
70368;DHT22;57789;53.868;10.728;2022-12-18T06:26:15;-6.20;99.90
70368;DHT22;57789;53.868;10.728;2022-12-18T06:28:41;-6.20;99.90
70368;DHT22;57789;53.868;10.728;2022-12-18T06:31:08;-6.20;99.90
70368;DHT22;57789;53.868;10.728;2022-12-18T06:33:34;-6.30;99.90
70368;DHT22;57789;53.868;10.728;2022-12-18T06:36:07;-6.30;99.90
70368;DHT22;57789;53.868;10.728;2022-12-18T06:38:35;-6.30;99.90
70368;DHT22;57789;53.868;10.728;2022-12-18T06:41:05;-6.40;99.90
70368;DHT22;57789;53.868;10.728;2022-12-18T06:43:31;-6.40;99.90
70368;DHT22;57789;53.868;10.728;2022-12-18T06:46:00;-6.40;99.90
70368;DHT22;57789;53.868;10.728;2022-12-18T06:48:26;-6.40;99.90
70368;DHT22;57789;53.868;10.728;2022-12-18T06:50:52;-6.30;99.90
70368;DHT22;57789;53.868;10.728;2022-12-18T06:53:17;-6.30;99.90
70368;DHT22;57789;53.868;10.728;2022-12-18T06:55:43;-6.40;99.90
70368;DHT22;57789;53.868;10.728;2022-12-18T06:58:09;-6.40;99.90
70368;DHT22;57789;53.868;10.728;2022-12-18T07:00:34;-6.40;99.90
70368;DHT22;57789;53.868;10.728;2022-12-18T07:03:00;-6.40;99.90
70368;DHT22;57789;53.868;10.728;2022-12-18T07:05:25;-6.50;99.90
70368;DHT22;57789;53.868;10.728;2022-12-18T07:07:51;-6.40;99.90
70368;DHT22;57789;53.868;10.728;2022-12-18T07:10:16;-6.50;99.90
70368;DHT22;57789;53.868;10.728;2022-12-18T07:12:42;-6.40;99.90
70368;DHT22;57789;53.868;10.728;2022-12-18T07:15:09;-6.40;99.90
70368;DHT22;57789;53.868;10.728;2022-12-18T07:17:34;-6.40;99.90
70368;DHT22;57789;53.868;10.728;2022-12-18T07:20:00;-6.40;99.90
70368;DHT22;57789;53.868;10.728;2022-12-18T07:22:26;-6.50;99.90
70368;DHT22;57789;53.868;10.728;2022-12-18T07:24:51;-6.40;99.90
70368;DHT22;57789;53.868;10.728;2022-12-18T07:27:17;-6.40;99.90
70368;DHT22;57789;53.868;10.728;2022-12-18T07:29:43;-6.50;99.90
70368;DHT22;57789;53.868;10.728;2022-12-18T07:32:08;-6.50;99.90
70368;DHT22;57789;53.868;10.728;2022-12-18T07:34:34;-6.40;99.90
70368;DHT22;57789;53.868;10.728;2022-12-18T07:37:00;-6.50;99.90
70368;DHT22;57789;53.868;10.728;2022-12-18T07:39:25;-6.60;99.90
70368;DHT22;57789;53.868;10.728;2022-12-18T07:41:51;-6.50;99.90
70368;DHT22;57789;53.868;10.728;2022-12-18T07:44:43;-6.60;99.90
70368;DHT22;57789;53.868;10.728;2022-12-18T07:47:09;-6.60;99.90
70368;DHT22;57789;53.868;10.728;2022-12-18T07:49:34;-6.60;99.90
70368;DHT22;57789;53.868;10.728;2022-12-18T07:52:00;-6.60;99.90
70368;DHT22;57789;53.868;10.728;2022-12-18T07:54:27;-6.60;99.90
70368;DHT22;57789;53.868;10.728;2022-12-18T07:56:53;-6.50;99.90
70368;DHT22;57789;53.868;10.728;2022-12-18T07:59:28;-6.60;99.90
70368;DHT22;57789;53.868;10.728;2022-12-18T08:01:54;-6.50;99.90
70368;DHT22;57789;53.868;10.728;2022-12-18T08:04:19;-6.50;99.90
70368;DHT22;57789;53.868;10.728;2022-12-18T08:06:46;-6.60;99.90
70368;DHT22;57789;53.868;10.728;2022-12-18T08:09:11;-6.50;99.90
70368;DHT22;57789;53.868;10.728;2022-12-18T08:11:37;-6.50;99.90
70368;DHT22;57789;53.868;10.728;2022-12-18T08:14:02;-6.50;99.90
70368;DHT22;57789;53.868;10.728;2022-12-18T08:16:28;-6.40;99.90
70368;DHT22;57789;53.868;10.728;2022-12-18T08:18:54;-6.40;99.90
70368;DHT22;57789;53.868;10.728;2022-12-18T08:21:23;-6.40;99.90
70368;DHT22;57789;53.868;10.728;2022-12-18T08:23:50;-6.30;99.90
70368;DHT22;57789;53.868;10.728;2022-12-18T08:26:16;-6.30;99.90
70368;DHT22;57789;53.868;10.728;2022-12-18T08:28:41;-6.30;99.90
70368;DHT22;57789;53.868;10.728;2022-12-18T08:31:08;-6.20;99.90
70368;DHT22;57789;53.868;10.728;2022-12-18T08:33:35;-6.20;99.90
70368;DHT22;57789;53.868;10.728;2022-12-18T08:36:01;-6.10;99.90
70368;DHT22;57789;53.868;10.728;2022-12-18T08:38:27;-6.10;99.90
70368;DHT22;57789;53.868;10.728;2022-12-18T08:41:00;-6.00;99.90
70368;DHT22;57789;53.868;10.728;2022-12-18T08:43:25;-5.90;99.90
70368;DHT22;57789;53.868;10.728;2022-12-18T08:46:09;-5.90;99.90
70368;DHT22;57789;53.868;10.728;2022-12-18T08:48:35;-5.90;99.90
70368;DHT22;57789;53.868;10.728;2022-12-18T08:51:01;-5.70;99.90
70368;DHT22;57789;53.868;10.728;2022-12-18T08:53:27;-5.70;99.90
70368;DHT22;57789;53.868;10.728;2022-12-18T08:55:53;-5.60;99.90
70368;DHT22;57789;53.868;10.728;2022-12-18T08:58:19;-5.50;99.90
70368;DHT22;57789;53.868;10.728;2022-12-18T09:00:45;-5.50;99.90
70368;DHT22;57789;53.868;10.728;2022-12-18T09:03:15;-5.40;99.90
70368;DHT22;57789;53.868;10.728;2022-12-18T09:05:42;-5.40;99.90
70368;DHT22;57789;53.868;10.728;2022-12-18T09:08:08;-5.50;99.90
70368;DHT22;57789;53.868;10.728;2022-12-18T09:10:33;-5.40;99.90
70368;DHT22;57789;53.868;10.728;2022-12-18T09:12:59;-5.20;99.90
70368;DHT22;57789;53.868;10.728;2022-12-18T09:15:25;-4.90;99.90
70368;DHT22;57789;53.868;10.728;2022-12-18T09:17:51;-4.60;99.90
70368;DHT22;57789;53.868;10.728;2022-12-18T09:20:18;-4.40;99.90
70368;DHT22;57789;53.868;10.728;2022-12-18T09:22:44;-4.20;99.90
70368;DHT22;57789;53.868;10.728;2022-12-18T09:25:10;-4.10;99.90
70368;DHT22;57789;53.868;10.728;2022-12-18T09:27:36;-4.10;99.90
70368;DHT22;57789;53.868;10.728;2022-12-18T09:30:02;-4.20;99.90
70368;DHT22;57789;53.868;10.728;2022-12-18T09:32:28;-4.00;99.90
70368;DHT22;57789;53.868;10.728;2022-12-18T09:34:53;-4.10;99.90
70368;DHT22;57789;53.868;10.728;2022-12-18T09:37:19;-4.00;99.90
70368;DHT22;57789;53.868;10.728;2022-12-18T09:39:45;-4.00;99.90
70368;DHT22;57789;53.868;10.728;2022-12-18T09:42:20;-3.80;99.90
70368;DHT22;57789;53.868;10.728;2022-12-18T09:44:51;-3.70;99.90
70368;DHT22;57789;53.868;10.728;2022-12-18T09:47:24;-3.70;99.90
70368;DHT22;57789;53.868;10.728;2022-12-18T09:49:57;-3.80;99.90
70368;DHT22;57789;53.868;10.728;2022-12-18T09:52:33;-3.60;99.90
70368;DHT22;57789;53.868;10.728;2022-12-18T09:57:35;-3.30;99.90
70368;DHT22;57789;53.868;10.728;2022-12-18T10:00:15;-3.40;99.90
70368;DHT22;57789;53.868;10.728;2022-12-18T10:02:42;-3.30;99.90
70368;DHT22;57789;53.868;10.728;2022-12-18T10:05:12;-3.20;99.90
70368;DHT22;57789;53.868;10.728;2022-12-18T10:13:34;-2.60;99.90
70368;DHT22;57789;53.868;10.728;2022-12-18T10:18:55;-2.40;99.90
70368;DHT22;57789;53.868;10.728;2022-12-18T10:25:15;-2.20;99.90
70368;DHT22;57789;53.868;10.728;2022-12-18T10:27:34;-2.00;99.90
70368;DHT22;57789;53.868;10.728;2022-12-18T10:30:04;-1.90;99.90
70368;DHT22;57789;53.868;10.728;2022-12-18T10:32:30;-1.90;99.90
70368;DHT22;57789;53.868;10.728;2022-12-18T10:34:57;-2.00;99.90
70368;DHT22;57789;53.868;10.728;2022-12-18T10:37:28;-2.30;99.90
70368;DHT22;57789;53.868;10.728;2022-12-18T10:40:15;-2.50;99.90
70368;DHT22;57789;53.868;10.728;2022-12-18T10:42:41;-2.50;99.90
70368;DHT22;57789;53.868;10.728;2022-12-18T10:45:16;-2.50;99.90
70368;DHT22;57789;53.868;10.728;2022-12-18T10:47:47;-2.50;99.90
70368;DHT22;57789;53.868;10.728;2022-12-18T10:50:26;-2.50;99.90
70368;DHT22;57789;53.868;10.728;2022-12-18T10:52:55;-2.60;99.90
70368;DHT22;57789;53.868;10.728;2022-12-18T10:55:30;-2.50;99.90
70368;DHT22;57789;53.868;10.728;2022-12-18T10:58:13;-2.40;99.90
70368;DHT22;57789;53.868;10.728;2022-12-18T11:00:42;-2.60;99.90
70368;DHT22;57789;53.868;10.728;2022-12-18T11:03:34;-2.60;99.90
70368;DHT22;57789;53.868;10.728;2022-12-18T11:06:05;-2.50;99.90
70368;DHT22;57789;53.868;10.728;2022-12-18T11:08:32;-2.70;99.90
70368;DHT22;57789;53.868;10.728;2022-12-18T11:10:58;-2.80;99.90
70368;DHT22;57789;53.868;10.728;2022-12-18T11:13:25;-2.90;99.90
70368;DHT22;57789;53.868;10.728;2022-12-18T11:15:52;-2.60;99.90
70368;DHT22;57789;53.868;10.728;2022-12-18T11:18:29;-2.30;99.90
70368;DHT22;57789;53.868;10.728;2022-12-18T11:21:16;-2.30;99.90
70368;DHT22;57789;53.868;10.728;2022-12-18T11:23:49;-2.10;99.90
70368;DHT22;57789;53.868;10.728;2022-12-18T11:26:15;-2.10;99.90
70368;DHT22;57789;53.868;10.728;2022-12-18T11:28:47;-2.20;99.90
70368;DHT22;57789;53.868;10.728;2022-12-18T11:31:40;-2.30;99.90
70368;DHT22;57789;53.868;10.728;2022-12-18T11:34:26;-2.60;99.90
70368;DHT22;57789;53.868;10.728;2022-12-18T11:36:53;-2.60;99.90
70368;DHT22;57789;53.868;10.728;2022-12-18T11:39:43;-2.50;99.90
70368;DHT22;57789;53.868;10.728;2022-12-18T11:42:20;-2.70;99.90
70368;DHT22;57789;53.868;10.728;2022-12-18T11:44:51;-2.70;99.90
70368;DHT22;57789;53.868;10.728;2022-12-18T11:47:35;-2.90;99.90
70368;DHT22;57789;53.868;10.728;2022-12-18T11:50:05;-2.90;99.90
70368;DHT22;57789;53.868;10.728;2022-12-18T11:52:40;-2.90;99.90
70368;DHT22;57789;53.868;10.728;2022-12-18T11:55:34;-3.00;99.90
70368;DHT22;57789;53.868;10.728;2022-12-18T11:58:22;-3.10;99.90
70368;DHT22;57789;53.868;10.728;2022-12-18T12:09:45;-3.00;99.90
70368;DHT22;57789;53.868;10.728;2022-12-18T12:15:10;-2.70;99.90
70368;DHT22;57789;53.868;10.728;2022-12-18T12:20:26;-2.40;99.90
70368;DHT22;57789;53.868;10.728;2022-12-18T12:25:59;-2.30;99.90
70368;DHT22;57789;53.868;10.728;2022-12-18T12:39:30;-2.30;99.90
70368;DHT22;57789;53.868;10.728;2022-12-18T12:41:57;-2.50;99.90
70368;DHT22;57789;53.868;10.728;2022-12-18T12:44:53;-2.70;99.90
70368;DHT22;57789;53.868;10.728;2022-12-18T12:47:33;-2.70;99.90
70368;DHT22;57789;53.868;10.728;2022-12-18T12:50:05;-2.90;99.90
70368;DHT22;57789;53.868;10.728;2022-12-18T12:52:37;-3.00;99.90
70368;DHT22;57789;53.868;10.728;2022-12-18T12:55:07;-3.00;99.90
70368;DHT22;57789;53.868;10.728;2022-12-18T12:57:40;-3.00;99.90
70368;DHT22;57789;53.868;10.728;2022-12-18T13:00:18;-2.90;99.90
70368;DHT22;57789;53.868;10.728;2022-12-18T13:05:44;-2.80;99.90
70368;DHT22;57789;53.868;10.728;2022-12-18T13:08:26;-2.90;99.90
70368;DHT22;57789;53.868;10.728;2022-12-18T13:10:54;-2.90;99.90
70368;DHT22;57789;53.868;10.728;2022-12-18T13:13:56;-3.10;99.90
70368;DHT22;57789;53.868;10.728;2022-12-18T13:16:25;-3.00;99.90
70368;DHT22;57789;53.868;10.728;2022-12-18T13:18:56;-2.80;99.90
70368;DHT22;57789;53.868;10.728;2022-12-18T13:21:32;-2.70;99.90
70368;DHT22;57789;53.868;10.728;2022-12-18T13:24:15;-2.70;99.90
70368;DHT22;57789;53.868;10.728;2022-12-18T13:26:47;-2.80;99.90
70368;DHT22;57789;53.868;10.728;2022-12-18T13:29:40;-2.70;99.90
70368;DHT22;57789;53.868;10.728;2022-12-18T13:32:28;-2.60;99.90
70368;DHT22;57789;53.868;10.728;2022-12-18T13:37:51;-2.50;99.90
70368;DHT22;57789;53.868;10.728;2022-12-18T13:49:38;-2.70;99.90
70368;DHT22;57789;53.868;10.728;2022-12-18T13:52:17;-2.80;99.90
70368;DHT22;57789;53.868;10.728;2022-12-18T13:54:47;-2.90;99.90
70368;DHT22;57789;53.868;10.728;2022-12-18T13:57:34;-3.00;99.90
70368;DHT22;57789;53.868;10.728;2022-12-18T14:00:27;-3.10;99.90
70368;DHT22;57789;53.868;10.728;2022-12-18T14:02:54;-3.00;99.90
70368;DHT22;57789;53.868;10.728;2022-12-18T14:05:40;-3.10;99.90
70368;DHT22;57789;53.868;10.728;2022-12-18T14:08:12;-3.10;99.90
70368;DHT22;57789;53.868;10.728;2022-12-18T14:10:44;-3.20;99.90
70368;DHT22;57789;53.868;10.728;2022-12-18T14:13:17;-3.20;99.90
70368;DHT22;57789;53.868;10.728;2022-12-18T14:15:47;-3.30;99.90
70368;DHT22;57789;53.868;10.728;2022-12-18T14:21:03;-3.60;99.90
70368;DHT22;57789;53.868;10.728;2022-12-18T14:23:33;-3.50;99.90
70368;DHT22;57789;53.868;10.728;2022-12-18T14:26:00;-3.50;99.90
70368;DHT22;57789;53.868;10.728;2022-12-18T14:28:27;-3.50;99.90
70368;DHT22;57789;53.868;10.728;2022-12-18T14:30:53;-3.50;99.90
70368;DHT22;57789;53.868;10.728;2022-12-18T14:33:24;-3.50;99.90
70368;DHT22;57789;53.868;10.728;2022-12-18T14:35:59;-3.60;99.90
70368;DHT22;57789;53.868;10.728;2022-12-18T14:41:00;-3.60;99.90
70368;DHT22;57789;53.868;10.728;2022-12-18T14:43:28;-3.50;99.90
70368;DHT22;57789;53.868;10.728;2022-12-18T14:45:54;-3.40;99.90
70368;DHT22;57789;53.868;10.728;2022-12-18T14:48:33;-3.40;99.90
70368;DHT22;57789;53.868;10.728;2022-12-18T14:51:20;-3.40;99.90
70368;DHT22;57789;53.868;10.728;2022-12-18T14:53:51;-3.60;99.90
70368;DHT22;57789;53.868;10.728;2022-12-18T14:56:42;-3.70;99.90
70368;DHT22;57789;53.868;10.728;2022-12-18T14:59:23;-3.80;99.90
70368;DHT22;57789;53.868;10.728;2022-12-18T15:01:59;-3.80;99.90
70368;DHT22;57789;53.868;10.728;2022-12-18T15:04:29;-3.70;99.90
70368;DHT22;57789;53.868;10.728;2022-12-18T15:07:08;-3.70;99.90
70368;DHT22;57789;53.868;10.728;2022-12-18T15:09:35;-3.60;99.90
70368;DHT22;57789;53.868;10.728;2022-12-18T15:12:01;-3.80;99.90
70368;DHT22;57789;53.868;10.728;2022-12-18T15:16:56;-3.90;99.90
70368;DHT22;57789;53.868;10.728;2022-12-18T15:19:39;-3.90;99.90
70368;DHT22;57789;53.868;10.728;2022-12-18T15:22:19;-3.90;99.90
70368;DHT22;57789;53.868;10.728;2022-12-18T15:24:45;-3.80;99.90
70368;DHT22;57789;53.868;10.728;2022-12-18T15:30:21;-3.80;99.90
70368;DHT22;57789;53.868;10.728;2022-12-18T15:32:47;-3.90;99.90
70368;DHT22;57789;53.868;10.728;2022-12-18T15:35:17;-3.90;99.90
70368;DHT22;57789;53.868;10.728;2022-12-18T15:37:44;-4.00;99.90
70368;DHT22;57789;53.868;10.728;2022-12-18T15:40:27;-4.00;99.90
70368;DHT22;57789;53.868;10.728;2022-12-18T15:42:54;-4.00;99.90
70368;DHT22;57789;53.868;10.728;2022-12-18T15:45:39;-4.20;99.90
70368;DHT22;57789;53.868;10.728;2022-12-18T15:48:22;-4.20;99.90
70368;DHT22;57789;53.868;10.728;2022-12-18T15:50:50;-4.20;99.90
70368;DHT22;57789;53.868;10.728;2022-12-18T15:53:17;-4.30;99.90
70368;DHT22;57789;53.868;10.728;2022-12-18T15:55:43;-4.30;99.90
70368;DHT22;57789;53.868;10.728;2022-12-18T15:58:27;-4.10;99.90
70368;DHT22;57789;53.868;10.728;2022-12-18T16:00:55;-4.10;99.90
70368;DHT22;57789;53.868;10.728;2022-12-18T16:03:24;-4.10;99.90
70368;DHT22;57789;53.868;10.728;2022-12-18T16:05:59;-4.10;99.90
70368;DHT22;57789;53.868;10.728;2022-12-18T16:08:30;-4.20;99.90
70368;DHT22;57789;53.868;10.728;2022-12-18T16:10:57;-4.10;99.90
70368;DHT22;57789;53.868;10.728;2022-12-18T16:13:23;-4.10;99.90
70368;DHT22;57789;53.868;10.728;2022-12-18T16:15:49;-4.20;99.90
70368;DHT22;57789;53.868;10.728;2022-12-18T16:18:15;-4.20;99.90
70368;DHT22;57789;53.868;10.728;2022-12-18T16:20:40;-4.20;99.90
70368;DHT22;57789;53.868;10.728;2022-12-18T16:23:06;-4.20;99.90
70368;DHT22;57789;53.868;10.728;2022-12-18T16:25:32;-4.20;99.90
70368;DHT22;57789;53.868;10.728;2022-12-18T16:27:58;-4.10;99.90
70368;DHT22;57789;53.868;10.728;2022-12-18T16:30:26;-4.10;99.90
70368;DHT22;57789;53.868;10.728;2022-12-18T16:32:54;-4.00;99.90
70368;DHT22;57789;53.868;10.728;2022-12-18T16:35:20;-4.10;99.90
70368;DHT22;57789;53.868;10.728;2022-12-18T16:37:45;-4.10;99.90
70368;DHT22;57789;53.868;10.728;2022-12-18T16:40:13;-4.10;99.90
70368;DHT22;57789;53.868;10.728;2022-12-18T16:42:41;-4.10;99.90
70368;DHT22;57789;53.868;10.728;2022-12-18T16:45:09;-3.90;99.90
70368;DHT22;57789;53.868;10.728;2022-12-18T16:47:35;-4.00;99.90
70368;DHT22;57789;53.868;10.728;2022-12-18T16:50:00;-3.90;99.90
70368;DHT22;57789;53.868;10.728;2022-12-18T16:52:26;-3.80;99.90
70368;DHT22;57789;53.868;10.728;2022-12-18T16:54:52;-3.80;99.90
70368;DHT22;57789;53.868;10.728;2022-12-18T16:57:19;-3.80;99.90
70368;DHT22;57789;53.868;10.728;2022-12-18T16:59:45;-3.70;99.90
70368;DHT22;57789;53.868;10.728;2022-12-18T17:02:20;-3.70;99.90
70368;DHT22;57789;53.868;10.728;2022-12-18T17:04:46;-3.80;99.90
70368;DHT22;57789;53.868;10.728;2022-12-18T17:07:12;-3.80;99.90
70368;DHT22;57789;53.868;10.728;2022-12-18T17:09:38;-3.70;99.90
70368;DHT22;57789;53.868;10.728;2022-12-18T17:12:04;-3.80;99.90